createdAt,value
2022-09-03T00:01:51.887Z,50.46
2022-09-03T00:04:26.213Z,50.73
2022-09-03T00:07:02.235Z,50.89
2022-09-03T00:09:35.213Z,51.33
2022-09-03T00:12:10.501Z,51.13
2022-09-03T00:14:42.054Z,51.08
2022-09-03T00:17:18.226Z,51.45
2022-09-03T00:19:55.040Z,51.47
2022-09-03T00:22:28.408Z,51.45
2022-09-03T00:25:01.264Z,51.44
2022-09-03T00:27:30.068Z,51.55
2022-09-03T00:30:03.442Z,51.78
2022-09-03T00:32:41.604Z,51.84
2022-09-03T00:35:16.814Z,52.45
2022-09-03T00:37:44.563Z,52.08
2022-09-03T00:40:36.159Z,52.19
2022-09-03T00:43:16.071Z,52.41
2022-09-03T00:45:53.959Z,52.48
2022-09-03T00:48:28.570Z,52.93
2022-09-03T00:51:17.977Z,52.69
2022-09-03T00:53:55.763Z,53.08
2022-09-03T00:56:32.151Z,53.00
2022-09-03T00:59:10.207Z,53.24
2022-09-03T01:01:45.843Z,52.78
2022-09-03T01:04:30.045Z,53.02
2022-09-03T01:07:09.661Z,53.35
2022-09-03T01:09:49.046Z,52.99
2022-09-03T01:12:25.349Z,53.00
2022-09-03T01:15:05.299Z,53.07
2022-09-03T01:17:43.964Z,53.18
2022-09-03T01:20:42.074Z,53.18
2022-09-03T01:23:44.664Z,53.21
2022-09-03T01:26:30.010Z,53.32
2022-09-03T01:29:11.839Z,53.23
2022-09-03T01:31:47.028Z,53.37
2022-09-03T01:34:25.143Z,53.36
2022-09-03T01:37:03.146Z,53.11
2022-09-03T01:39:42.797Z,53.44
2022-09-03T01:42:24.461Z,53.24
2022-09-03T01:45:14.524Z,53.63
2022-09-03T01:47:57.341Z,53.14
2022-09-03T01:50:38.213Z,53.62
2022-09-03T01:53:10.859Z,53.56
2022-09-03T01:55:56.038Z,53.53
2022-09-03T01:58:31.328Z,53.32
2022-09-03T02:01:06.162Z,53.37
2022-09-03T02:03:41.079Z,53.14
2022-09-03T02:06:10.077Z,53.37
2022-09-03T02:08:37.679Z,53.56
2022-09-03T02:11:07.994Z,53.82
2022-09-03T02:13:39.504Z,53.59
2022-09-03T02:16:13.962Z,53.82
2022-09-03T02:18:45.999Z,53.75
2022-09-03T02:21:17.540Z,53.63
2022-09-03T02:23:45.357Z,53.58
2022-09-03T02:26:15.514Z,53.86
2022-09-03T02:28:43.127Z,54.01
2022-09-03T02:31:12.449Z,53.87
2022-09-03T02:33:41.899Z,54.03
2022-09-03T02:36:12.942Z,54.25
2022-09-03T02:38:43.378Z,54.76
2022-09-03T02:41:13.127Z,54.69
2022-09-03T02:43:45.878Z,54.42
2022-09-03T02:46:21.665Z,54.79
2022-09-03T02:48:49.573Z,54.89
2022-09-03T02:51:17.455Z,55.01
2022-09-03T02:53:45.096Z,55.20
2022-09-03T02:56:13.558Z,55.71
2022-09-03T02:58:41.315Z,55.60
2022-09-03T03:01:09.059Z,55.46
2022-09-03T03:03:38.052Z,55.57
2022-09-03T03:06:07.227Z,55.26
2022-09-03T03:08:35.261Z,55.13
2022-09-03T03:11:03.538Z,55.36
2022-09-03T03:13:32.656Z,55.58
2022-09-03T03:16:01.670Z,55.72
2022-09-03T03:18:30.290Z,55.84
2022-09-03T03:20:59.231Z,55.67
2022-09-03T03:23:26.793Z,56.10
2022-09-03T03:25:54.327Z,55.73
2022-09-03T03:28:22.097Z,55.56
2022-09-03T03:30:50.097Z,55.45
2022-09-03T03:33:17.701Z,55.88
2022-09-03T03:35:45.238Z,55.86
2022-09-03T03:38:14.100Z,55.69
2022-09-03T03:40:41.732Z,55.49
2022-09-03T03:43:09.231Z,55.35
2022-09-03T03:45:36.863Z,55.66
2022-09-03T03:48:04.997Z,55.41
2022-09-03T03:50:32.667Z,55.83
2022-09-03T03:53:01.840Z,55.58
2022-09-03T03:55:35.068Z,55.74
2022-09-03T03:58:02.949Z,56.00
2022-09-03T04:00:30.499Z,55.51
2022-09-03T04:02:58.046Z,56.14
2022-09-03T04:05:25.650Z,55.69
2022-09-03T04:07:54.437Z,56.31
2022-09-03T04:10:22.944Z,56.13
2022-09-03T04:12:55.035Z,56.19
2022-09-03T04:15:22.570Z,56.09
2022-09-03T04:17:50.380Z,55.93
2022-09-03T04:20:17.928Z,56.29
2022-09-03T04:22:48.082Z,56.05
2022-09-03T04:25:17.794Z,56.33
2022-09-03T04:27:45.334Z,56.32
2022-09-03T04:30:14.674Z,56.72
2022-09-03T04:32:54.625Z,56.35
2022-09-03T04:35:22.750Z,56.96
2022-09-03T04:37:50.450Z,57.24
2022-09-03T04:40:19.401Z,57.27
2022-09-03T04:42:46.948Z,57.25
2022-09-03T04:45:18.637Z,57.08
2022-09-03T04:47:47.420Z,57.51
2022-09-03T04:50:15.043Z,57.50
2022-09-03T04:52:42.599Z,57.42
2022-09-03T04:55:12.033Z,57.20
2022-09-03T04:57:39.655Z,57.35
2022-09-03T05:00:11.220Z,57.46
2022-09-03T05:02:40.277Z,58.02
2022-09-03T05:05:08.643Z,57.42
2022-09-03T05:07:38.682Z,57.52
2022-09-03T05:10:08.168Z,57.99
2022-09-03T05:12:36.527Z,57.98
2022-09-03T05:15:05.479Z,57.86
2022-09-03T05:17:37.219Z,57.89
2022-09-03T05:20:08.367Z,57.52
2022-09-03T05:22:36.249Z,57.59
2022-09-03T05:25:04.168Z,57.83
2022-09-03T05:27:33.134Z,58.13
2022-09-03T05:30:01.304Z,57.70
2022-09-03T05:32:31.470Z,57.64
2022-09-03T05:34:58.976Z,57.98
2022-09-03T05:37:27.821Z,57.85
2022-09-03T05:39:55.451Z,58.27
2022-09-03T05:42:23.112Z,58.08
2022-09-03T05:44:51.262Z,57.75
2022-09-03T05:47:18.897Z,58.68
2022-09-03T05:49:46.440Z,58.48
2022-09-03T05:52:13.993Z,58.21
2022-09-03T05:54:42.900Z,58.21
2022-09-03T05:57:10.427Z,58.45
2022-09-03T05:59:37.979Z,57.99
2022-09-03T06:02:05.672Z,58.09
2022-09-03T06:04:33.648Z,57.97
2022-09-03T06:07:01.705Z,58.42
2022-09-03T06:09:29.255Z,57.69
2022-09-03T06:11:58.133Z,57.38
2022-09-03T06:14:27.659Z,56.98
2022-09-03T06:16:56.833Z,57.08
2022-09-03T06:19:24.432Z,56.75
2022-09-03T06:21:52.039Z,56.18
2022-09-03T06:24:23.210Z,56.15
2022-09-03T06:26:54.081Z,56.39
2022-09-03T06:29:23.123Z,56.00
2022-09-03T06:31:50.915Z,55.37
2022-09-03T06:34:19.393Z,54.27
2022-09-03T06:36:46.994Z,53.50
2022-09-03T06:39:14.579Z,54.17
2022-09-03T06:41:42.133Z,54.10
2022-09-03T06:44:12.270Z,53.22
2022-09-03T06:46:43.196Z,53.02
2022-09-03T06:49:11.404Z,52.73
2022-09-03T06:51:39.749Z,52.41
2022-09-03T06:54:09.091Z,52.24
2022-09-03T06:56:40.447Z,52.07
2022-09-03T06:59:10.291Z,51.87
2022-09-03T07:01:41.038Z,51.48
2022-09-03T07:04:16.126Z,51.34
2022-09-03T07:06:45.195Z,51.52
2022-09-03T07:09:15.264Z,50.67
2022-09-03T07:11:47.415Z,50.51
2022-09-03T07:14:17.421Z,49.87
2022-09-03T07:16:46.000Z,51.07
2022-09-03T07:19:15.129Z,50.82
2022-09-03T07:21:48.829Z,50.88
2022-09-03T07:24:18.060Z,50.70
2022-09-03T07:26:46.473Z,50.70
2022-09-03T07:29:15.720Z,51.03
2022-09-03T07:31:44.427Z,50.93
2022-09-03T07:34:13.629Z,50.13
2022-09-03T07:36:46.840Z,50.06
2022-09-03T07:39:16.715Z,51.00
2022-09-03T07:41:46.151Z,50.80
2022-09-03T07:44:15.288Z,50.24
2022-09-03T07:46:43.691Z,49.44
2022-09-03T07:49:11.393Z,49.19
2022-09-03T07:51:40.435Z,49.46
2022-09-03T07:54:11.709Z,48.33
2022-09-03T07:56:41.030Z,48.86
2022-09-03T07:59:09.970Z,48.69
2022-09-03T08:01:39.267Z,48.72
2022-09-03T08:04:10.824Z,48.13
2022-09-03T08:06:39.543Z,47.89
2022-09-03T08:09:11.230Z,48.24
2022-09-03T08:11:41.477Z,48.19
2022-09-03T08:14:11.538Z,46.75
2022-09-03T08:16:43.224Z,45.97
2022-09-03T08:19:11.252Z,45.69
2022-09-03T08:21:39.054Z,46.30
2022-09-03T08:24:07.136Z,47.47
2022-09-03T08:26:38.689Z,45.96
2022-09-03T08:29:07.029Z,45.09
2022-09-03T08:31:36.563Z,45.99
2022-09-03T08:34:07.202Z,45.57
2022-09-03T08:36:36.761Z,45.11
2022-09-03T08:39:09.591Z,44.44
2022-09-03T08:42:11.843Z,44.34
2022-09-03T08:44:46.951Z,44.67
2022-09-03T08:47:19.725Z,44.38
2022-09-03T08:49:52.245Z,42.99
2022-09-03T08:52:27.225Z,42.32
2022-09-03T08:55:03.278Z,41.03
2022-09-03T08:57:38.013Z,42.05
2022-09-03T09:00:06.603Z,40.63
2022-09-03T09:02:46.053Z,39.27
2022-09-03T09:05:19.424Z,38.45
2022-09-03T09:07:53.271Z,36.86
2022-09-03T09:10:27.900Z,36.87
2022-09-03T09:13:13.319Z,37.40
2022-09-03T09:15:47.940Z,36.03
2022-09-03T09:18:24.557Z,36.89
2022-09-03T09:20:55.670Z,38.23
2022-09-03T09:23:28.915Z,39.97
2022-09-03T09:26:00.138Z,37.67
2022-09-03T09:28:33.987Z,38.75
2022-09-03T09:31:03.539Z,37.37
2022-09-03T09:33:33.523Z,38.22
2022-09-03T09:36:06.249Z,38.19
2022-09-03T09:38:36.425Z,37.24
2022-09-03T09:41:12.470Z,36.49
2022-09-03T09:43:41.380Z,37.54
2022-09-03T09:46:13.959Z,36.29
2022-09-03T09:48:50.045Z,37.03
2022-09-03T09:51:21.412Z,37.14
2022-09-03T09:53:49.729Z,38.04
2022-09-03T09:56:24.747Z,37.51
2022-09-03T09:59:03.381Z,38.29
2022-09-03T10:01:32.107Z,37.23
2022-09-03T10:04:01.440Z,38.00
2022-09-03T10:06:49.962Z,35.78
2022-09-03T10:09:19.721Z,36.10
2022-09-03T10:11:50.838Z,36.86
2022-09-03T10:14:25.030Z,33.92
2022-09-03T10:17:01.527Z,34.26
2022-09-03T10:19:38.256Z,32.37
2022-09-03T10:22:11.044Z,32.62
2022-09-03T10:24:52.167Z,32.24
2022-09-03T10:27:20.882Z,33.01
2022-09-03T10:29:50.244Z,35.26
2022-09-03T10:32:37.993Z,33.39
2022-09-03T10:35:15.692Z,35.04
2022-09-03T10:37:52.083Z,34.17
2022-09-03T10:40:30.903Z,32.15
2022-09-03T10:43:17.163Z,31.92
2022-09-03T10:45:56.839Z,30.60
2022-09-03T10:48:44.207Z,32.47
2022-09-03T10:51:20.350Z,31.63
2022-09-03T10:54:16.480Z,30.29
2022-09-03T10:56:55.804Z,32.63
2022-09-03T10:59:36.043Z,30.51
2022-09-03T11:02:26.379Z,30.93
2022-09-03T11:05:00.851Z,32.09
2022-09-03T11:07:35.976Z,30.93
2022-09-03T11:10:13.572Z,30.55
2022-09-03T11:12:45.877Z,31.45
2022-09-03T11:15:25.139Z,29.71
2022-09-03T11:18:04.001Z,30.12
2022-09-03T11:20:33.771Z,28.46
2022-09-03T11:23:04.022Z,27.56
2022-09-03T11:25:35.729Z,29.83
2022-09-03T11:28:21.417Z,28.61
2022-09-03T11:31:05.059Z,29.93
2022-09-03T11:33:37.265Z,28.52
2022-09-03T11:36:07.818Z,30.61
2022-09-03T11:38:37.348Z,28.54
2022-09-03T11:41:14.250Z,28.49
2022-09-03T11:43:42.473Z,30.96
2022-09-03T11:46:14.102Z,29.10
2022-09-03T11:48:45.393Z,28.56
2022-09-03T11:51:33.218Z,27.93
2022-09-03T11:54:03.030Z,27.13
2022-09-03T11:56:31.531Z,29.63
2022-09-03T11:59:03.673Z,28.62
2022-09-03T12:01:33.084Z,26.29
2022-09-03T12:04:04.246Z,26.81
2022-09-03T12:07:02.914Z,27.34
2022-09-03T12:10:10.014Z,28.02
2022-09-03T12:13:02.109Z,27.32
2022-09-03T12:15:50.871Z,28.54
2022-09-03T12:18:23.724Z,27.52
2022-09-03T12:21:04.944Z,30.33
2022-09-03T12:23:35.035Z,27.31
2022-09-03T12:26:05.902Z,27.22
2022-09-03T12:28:38.473Z,25.41
2022-09-03T12:31:21.086Z,29.04
2022-09-03T12:33:51.359Z,28.56
2022-09-03T12:36:21.420Z,25.81
2022-09-03T12:39:10.319Z,24.56
2022-09-03T12:41:37.708Z,24.52
2022-09-03T12:44:05.949Z,25.62
2022-09-03T12:46:34.919Z,22.74
2022-09-03T12:52:05.522Z,27.47
2022-09-03T12:54:34.676Z,25.61
2022-09-03T12:57:02.812Z,27.98
2022-09-03T12:59:36.070Z,25.05
2022-09-03T13:02:07.601Z,23.83
2022-09-03T13:04:38.304Z,22.90
2022-09-03T13:07:12.181Z,20.91
2022-09-03T13:09:42.077Z,23.79
2022-09-03T13:12:22.719Z,24.74
2022-09-03T13:14:52.386Z,22.81
2022-09-03T13:17:32.910Z,20.78
2022-09-03T13:20:33.068Z,23.53
2022-09-03T13:23:15.576Z,22.84
2022-09-03T13:25:56.474Z,22.41
2022-09-03T13:28:36.198Z,22.67
2022-09-03T13:31:13.297Z,20.06
2022-09-03T13:33:44.941Z,21.04
2022-09-03T13:36:19.065Z,24.78
2022-09-03T13:38:55.365Z,25.24
2022-09-03T13:41:36.481Z,23.63
2022-09-03T13:44:11.446Z,22.39
2022-09-03T13:46:45.330Z,20.75
2022-09-03T13:49:43.307Z,23.22
2022-09-03T13:52:22.687Z,21.16
2022-09-03T13:54:56.894Z,20.67
2022-09-03T13:57:36.166Z,19.38
2022-09-03T14:00:07.975Z,18.83
2022-09-03T14:02:49.838Z,19.75
2022-09-03T14:05:32.251Z,20.22
2022-09-03T14:08:10.384Z,18.97
2022-09-03T14:10:54.281Z,20.02
2022-09-03T14:13:31.509Z,21.03
2022-09-03T14:16:06.074Z,20.58
2022-09-03T14:18:47.258Z,19.93
2022-09-03T14:21:20.068Z,21.70
2022-09-03T14:23:52.545Z,22.66
2022-09-03T14:26:38.483Z,21.85
2022-09-03T14:29:16.284Z,20.16
2022-09-03T14:32:25.294Z,18.50
2022-09-03T14:35:16.092Z,19.20
2022-09-03T14:38:03.139Z,18.45
2022-09-03T14:40:35.940Z,23.05
2022-09-03T14:43:27.808Z,24.16
2022-09-03T14:46:14.106Z,22.90
2022-09-03T14:48:58.465Z,21.57
2022-09-03T14:51:38.149Z,20.50
2022-09-03T14:54:21.735Z,21.38
2022-09-03T14:56:56.160Z,22.96
2022-09-03T14:59:48.572Z,22.62
2022-09-03T15:02:51.291Z,22.24
2022-09-03T15:05:29.278Z,23.20
2022-09-03T15:08:01.980Z,23.29
2022-09-03T15:10:39.413Z,22.41
2022-09-03T15:13:12.883Z,21.47
2022-09-03T15:16:00.435Z,21.38
2022-09-03T15:18:33.340Z,23.40
2022-09-03T15:21:16.351Z,23.10
2022-09-03T15:23:57.620Z,24.57
2022-09-03T15:26:59.526Z,22.13
2022-09-03T15:29:36.688Z,22.61
2022-09-03T15:32:11.751Z,21.45
2022-09-03T15:34:56.335Z,23.36
2022-09-03T15:37:28.702Z,24.27
2022-09-03T15:40:04.650Z,21.96
2022-09-03T15:42:32.414Z,23.19
2022-09-03T15:45:05.262Z,23.70
2022-09-03T15:47:50.734Z,24.92
2022-09-03T15:50:31.149Z,24.10
2022-09-03T15:53:04.904Z,25.28
2022-09-03T15:55:37.007Z,24.93
2022-09-03T15:58:14.341Z,27.02
2022-09-03T16:01:00.273Z,23.62
2022-09-03T16:03:48.146Z,23.73
2022-09-03T16:06:28.960Z,23.95
2022-09-03T16:09:00.465Z,26.18
2022-09-03T16:11:37.209Z,24.64
2022-09-03T16:14:11.378Z,24.27
2022-09-03T16:17:01.293Z,25.77
2022-09-03T16:19:39.271Z,24.28
2022-09-03T16:22:13.462Z,26.45
2022-09-03T16:24:49.613Z,26.27
2022-09-03T16:27:21.852Z,26.52
2022-09-03T16:29:59.810Z,27.00
2022-09-03T16:32:55.524Z,27.67
2022-09-03T16:35:41.305Z,27.68
2022-09-03T16:38:23.390Z,29.10
2022-09-03T16:40:56.305Z,28.62
2022-09-03T16:43:40.675Z,30.11
2022-09-03T16:46:22.998Z,30.26
2022-09-03T16:49:00.080Z,30.52
2022-09-03T16:51:40.397Z,30.84
2022-09-03T16:54:21.394Z,29.90
2022-09-03T16:57:01.198Z,30.80
2022-09-03T16:59:50.818Z,31.60
2022-09-03T17:02:41.765Z,32.62
2022-09-03T17:05:37.925Z,32.39
2022-09-03T17:08:20.876Z,33.26
2022-09-03T17:10:53.078Z,33.62
2022-09-03T17:13:52.795Z,33.79
2022-09-03T17:16:31.655Z,32.55
2022-09-03T17:19:06.658Z,33.80
2022-09-03T17:21:45.915Z,33.35
2022-09-03T17:24:37.423Z,33.36
2022-09-03T17:27:28.346Z,33.03
2022-09-03T17:30:05.137Z,34.64
2022-09-03T17:32:48.310Z,35.41
2022-09-03T17:35:20.680Z,34.87
2022-09-03T17:38:01.985Z,35.32
2022-09-03T17:40:42.735Z,35.08
2022-09-03T17:43:21.981Z,35.39
2022-09-03T17:45:56.230Z,35.58
2022-09-03T17:48:47.088Z,36.29
2022-09-03T17:51:26.418Z,35.85
2022-09-03T17:53:58.303Z,36.42
2022-09-03T17:56:31.824Z,37.24
2022-09-03T17:59:09.019Z,37.04
2022-09-03T18:01:39.662Z,37.29
2022-09-03T18:04:18.014Z,37.40
2022-09-03T18:06:55.932Z,37.91
2022-09-03T18:09:35.820Z,37.75
2022-09-03T18:12:12.632Z,38.27
2022-09-03T18:14:50.510Z,37.89
2022-09-03T18:17:27.943Z,38.78
2022-09-03T18:20:20.725Z,38.86
2022-09-03T18:23:11.844Z,39.11
2022-09-03T18:26:02.913Z,38.87
2022-09-03T18:28:56.608Z,39.41
2022-09-03T18:31:42.077Z,39.66
2022-09-03T18:34:27.742Z,40.03
2022-09-03T18:37:16.650Z,39.86
2022-09-03T18:40:05.304Z,40.58
2022-09-03T18:43:07.135Z,40.33
2022-09-03T18:49:15.483Z,41.74
2022-09-03T18:52:10.916Z,41.63
2022-09-03T18:55:12.083Z,41.68
2022-09-03T18:58:09.463Z,42.44
2022-09-03T19:01:02.507Z,42.26
2022-09-03T19:03:59.345Z,42.65
2022-09-03T19:06:54.940Z,43.02
2022-09-03T19:09:54.409Z,43.26
2022-09-03T19:12:58.910Z,43.52
2022-09-03T19:15:48.486Z,43.60
2022-09-03T19:18:46.531Z,43.22
2022-09-03T19:21:38.902Z,43.58
2022-09-03T19:24:24.346Z,44.27
2022-09-03T19:27:50.148Z,44.59
2022-09-03T19:30:32.958Z,44.41
2022-09-03T19:33:27.996Z,44.89
2022-09-03T19:36:23.156Z,44.78
2022-09-03T19:39:21.187Z,45.25
2022-09-03T19:42:10.532Z,45.40
2022-09-03T19:45:10.546Z,45.81
2022-09-03T19:48:03.575Z,45.78
2022-09-03T19:50:55.523Z,46.27
2022-09-03T19:53:42.747Z,46.74
2022-09-03T19:56:33.566Z,46.71
2022-09-03T19:59:21.779Z,47.08
2022-09-03T20:02:07.706Z,47.41
2022-09-03T20:04:56.602Z,47.87
2022-09-03T20:07:42.281Z,48.05
2022-09-03T20:10:23.836Z,47.98
2022-09-03T20:13:04.106Z,48.63
2022-09-03T20:15:43.878Z,48.88
2022-09-03T20:18:20.053Z,49.00
2022-09-03T20:20:55.061Z,49.63
2022-09-03T20:23:31.426Z,49.59
2022-09-03T20:26:13.807Z,50.15
2022-09-03T20:29:03.851Z,49.90
2022-09-03T20:31:42.193Z,50.35
2022-09-03T20:34:16.431Z,50.27
2022-09-03T20:36:56.362Z,50.63
2022-09-03T20:39:41.898Z,50.58
2022-09-03T20:42:25.833Z,50.76
2022-09-03T20:44:59.767Z,50.89
2022-09-03T20:48:03.518Z,51.41
2022-09-03T20:50:44.326Z,51.47
2022-09-03T20:53:34.780Z,51.43
2022-09-03T20:56:07.701Z,51.47
2022-09-03T20:58:45.966Z,51.72
2022-09-03T21:01:17.545Z,51.47
2022-09-03T21:03:51.279Z,52.19
2022-09-03T21:06:32.171Z,52.08
2022-09-03T21:09:13.920Z,52.41
2022-09-03T21:11:48.853Z,52.62
2022-09-03T21:14:31.984Z,52.37
2022-09-03T21:17:18.792Z,53.25
2022-09-03T21:20:01.952Z,53.45
2022-09-03T21:22:40.229Z,53.56
2022-09-03T21:25:09.505Z,53.25
2022-09-03T21:27:43.746Z,53.18
2022-09-03T21:30:16.319Z,54.07
2022-09-03T21:32:49.017Z,53.97
2022-09-03T21:35:22.078Z,54.09
2022-09-03T21:37:56.400Z,54.03
2022-09-03T21:40:29.196Z,54.25
2022-09-03T21:43:02.869Z,54.98
2022-09-03T21:45:38.543Z,55.20
2022-09-03T21:48:10.992Z,55.12
2022-09-03T21:50:49.885Z,54.94
2022-09-03T21:53:25.965Z,55.63
2022-09-03T21:56:21.603Z,55.64
2022-09-03T21:59:15.419Z,55.79
2022-09-03T22:01:54.593Z,56.23
2022-09-03T22:04:22.409Z,56.86
2022-09-03T22:06:58.128Z,56.56
2022-09-03T22:09:32.862Z,56.69
2022-09-03T22:12:07.786Z,57.21
2022-09-03T22:14:39.567Z,57.25
2022-09-03T22:17:15.190Z,57.48
2022-09-03T22:19:42.776Z,57.75
2022-09-03T22:22:17.988Z,58.00
2022-09-03T22:24:51.868Z,58.25
2022-09-03T22:27:27.172Z,58.76
2022-09-03T22:30:04.905Z,59.12
2022-09-03T22:32:44.193Z,58.59
2022-09-03T22:35:42.647Z,58.98
2022-09-03T22:38:27.911Z,59.75
2022-09-03T22:41:05.958Z,59.99
2022-09-03T22:43:39.544Z,59.94
2022-09-03T22:46:11.055Z,60.77
2022-09-03T22:49:02.600Z,60.40
2022-09-03T22:51:40.795Z,60.23
2022-09-03T22:54:22.773Z,60.28
2022-09-03T22:56:52.414Z,60.54
2022-09-03T22:59:24.751Z,60.98
2022-09-03T23:01:59.659Z,60.89
2022-09-03T23:04:32.611Z,61.03
2022-09-03T23:07:05.376Z,61.31
2022-09-03T23:09:38.825Z,61.04
2022-09-03T23:12:11.247Z,61.68
2022-09-03T23:14:48.662Z,62.43
2022-09-03T23:17:25.140Z,61.90
2022-09-03T23:22:36.548Z,63.02
2022-09-03T23:25:10.190Z,62.81
2022-09-03T23:27:42.910Z,62.97
2022-09-03T23:30:11.049Z,62.11
2022-09-03T23:32:38.639Z,63.01
2022-09-03T23:35:17.695Z,62.73
2022-09-03T23:37:56.131Z,63.15
2022-09-03T23:40:34.832Z,63.33
2022-09-03T23:43:22.448Z,63.10
2022-09-03T23:46:01.276Z,63.63
2022-09-03T23:48:39.941Z,63.20
2022-09-03T23:51:14.708Z,63.04
2022-09-03T23:53:54.405Z,63.07
2022-09-03T23:56:40.693Z,62.77
2022-09-03T23:59:16.205Z,62.89
